Latest Coastal Weather Observations for Wadeye (Port Keats)

IDD60701

Issued at 8:05 pm CST Monday 21 April 2014 (issued every 10 minutes, with the page automatically refreshed every 10 minutes)

About coastal observations | Map of coastal stations | Coastal observations for NT | Marine services | Other Formats
Station Details ID: 014948 Name: PORT KEATS AIRPORT Lat: -14.25 Lon: 129.53 Height: 28.0 m
Data from the previous 72 hours. | See also: Recent months at Wadeye (Port Keats)
Date/Time
CST
Temp

°C
Wind Pressure Rain
since 9am
mm
Weather Cloud Vis
km
Sea
Height
m
Swell
Dir
 
Speed
knots
Gust
knots
hPa Trend Height
m
Period
s
Dir
21/08:00pm 26.9 SSW 4 5 1010.5 - 0.0 - - - - - - -
21/07:30pm 27.3 SSW 4 5 1010.3 - 0.0 - - - - - - -
21/07:00pm 27.9 SW 3 4 1010.1 - 0.0 - - - - - - -
21/06:30pm 29.1 SW 3 4 1009.8 - 0.0 - - - - - - -
21/06:00pm 29.7 WSW 2 4 1009.4 - 0.0 - - - - - - -
21/05:30pm 30.3 W 4 5 1009.4 - 0.0 - - - - - - -
21/05:00pm 31.0 WNW 6 10 1009.1 - 0.0 - - - - - - -
21/04:30pm 31.9 WSW 5 8 1008.8 - 0.0 - - - - - - -
21/04:00pm 32.0 WSW 5 8 1008.8 - 0.0 - - - - - - -
21/03:30pm 32.1 W 5 8 1008.8 - 0.0 - - - - - - -
21/03:00pm 32.5 SSW 4 5 1008.7 - 0.0 - - - - - - -
21/02:30pm 33.9 E 3 6 1009.0 - 0.0 - - - - - - -
21/02:00pm 33.9 SE 7 11 1009.3 - 0.0 - - - - - - -
21/01:30pm 33.5 ESE 5 8 1009.6 - 0.0 - - - - - - -
21/01:00pm 32.9 NE 5 8 1009.8 - 0.0 - - - - - - -
21/12:30pm 33.4 E 6 12 1010.3 - 0.0 - - - - - - -
21/12:00pm 32.3 NE 7 11 1010.4 - 0.0 - - - - - - -
21/11:30am 32.3 E 7 11 1011.1 - 0.0 - - - - - - -
21/11:00am 31.8 E 8 12 1011.5 - 0.0 - - - - - - -
21/10:30am 31.3 E 8 15 1011.8 - 0.0 - - - - - - -
21/10:00am 30.8 E 6 11 1011.7 - 0.0 - - - - - - -
21/09:30am 30.2 E 6 8 1011.6 - 0.0 - - - - - - -
21/09:00am 29.3 E 4 5 1011.1 - 0.0 - - - - - - -
21/08:30am 28.0 SE 2 4 1011.1 - 0.0 - - - - - - -
21/08:00am 26.1 SE 4 5 1010.8 - 0.0 - - - - - - -
21/07:30am 23.7 SE 4 4 1010.6 - 0.0 - - - - - - -
21/07:00am 23.4 SSE 3 4 1010.4 - 0.0 - - - - - - -
21/06:30am 23.9 SE 2 3 1010.1 - 0.0 - - - - - - -
21/06:00am 24.8 SE 4 5 1009.7 - 0.0 - - - - - - -
21/05:30am 25.9 ESE 5 6 1009.6 - 0.0 - - - - - - -
21/05:00am 26.2 E 4 5 1009.5 - 0.0 - - - - - - -
21/04:30am 25.9 ESE 4 5 1009.4 - 0.0 - - - - - - -
21/04:00am 24.9 NE 2 5 1009.4 - 0.0 - - - - - - -
21/03:30am 25.2 E 2 4 1009.2 - 0.0 - - - - - - -
21/03:00am 24.9 S 4 5 1008.9 - 0.0 - - - - - - -
21/02:30am 24.5 S 4 6 1009.2 - 0.0 - - - - - - -
21/02:00am 23.7 S 4 5 1009.4 - 0.0 - - - - - - -
21/01:30am 24.4 S 3 5 1009.6 - 0.0 - - - - - - -
21/01:00am 24.4 S 3 4 1009.9 - 0.0 - - - - - - -
21/12:30am 24.3 SSW 3 5 1010.0 - 0.0 - - - - - - -
21/12:00am 25.1 S 4 6 1010.0 - 0.0 - - - - - - -
 
Date/Time
CST
Temp

°C
Wind Pressure Rain
since 9am
mm
Weather Cloud Vis
km
Sea
Height
m
Swell
Dir
 
Speed
knots
Gust
knots
hPa Trend Height
m
Period
s
Dir
20/11:30pm 24.5 SSW 4 6 1010.3 - 0.0 - - - - - - -
20/11:00pm 24.7 S 2 4 1010.3 - 0.0 - - - - - - -
20/10:30pm 25.0 S 2 3 1010.3 - 0.0 - - - - - - -
20/10:00pm 25.6 S 3 4 1010.6 - 0.0 - - - - - - -
20/09:30pm 25.5 SW 3 4 1010.5 - 0.0 - - - - - - -
20/09:00pm 25.3 SW 4 4 1010.1 - 0.0 - - - - - - -
20/08:30pm 26.2 CALM 0 0 1010.1 - 0.0 - - - - - - -
20/08:00pm 26.8 CALM 0 0 1009.9 - 0.0 - - - - - - -
20/07:30pm 27.3 CALM 0 0 1009.5 - 0.0 - - - - - - -
20/07:00pm 28.7 W 2 4 1009.2 - 0.0 - - - - - - -
20/06:30pm 30.0 NW 4 5 1008.9 - 0.0 - - - - - - -
20/06:00pm 31.1 WNW 5 8 1008.5 - 0.0 - - - - - - -
20/05:30pm 31.8 W 7 9 1008.3 - 0.0 - - - - - - -
20/05:00pm 32.3 WNW 7 9 1008.1 - 0.0 - - - - - - -
20/04:30pm 33.5 E 5 8 1007.8 - 0.0 - - - - - - -
20/04:00pm 33.0 S 4 7 1007.8 - 0.0 - - - - - - -
20/03:30pm 33.5 E 6 8 1007.8 - 0.0 - - - - - - -
20/03:00pm 34.2 E 7 11 1007.9 - 0.0 - - - - - - -
20/02:30pm 33.4 SE 7 11 1008.5 - 0.0 - - - - - - -
20/02:00pm 33.1 E 4 10 1008.8 - 0.0 - - - - - - -
20/01:30pm 32.8 ESE 8 11 1009.2 - 0.0 - - - - - - -
20/01:00pm 33.2 E 6 10 1009.6 - 0.0 - - - - - - -
20/12:30pm 32.1 E 8 12 1010.2 - 0.0 - - - - - - -
20/12:00pm 31.7 ESE 9 14 1010.4 - 0.0 - - - - - - -
20/11:30am 31.6 E 9 12 1010.9 - 0.0 - - - - - - -
20/11:00am 31.3 ESE 8 11 1011.3 - 0.0 - - - - - - -
20/10:30am 30.4 ESE 10 14 1011.7 - 0.0 - - - - - - -
20/10:00am 29.6 ESE 9 13 1011.5 - 0.0 - - - - - - -
20/09:30am 28.7 SE 8 11 1011.5 - 0.0 - - - - - - -
20/09:00am 27.6 SE 8 11 1011.1 - 0.0 - - - - - - -
20/08:30am 25.2 S 4 6 1011.1 - 0.0 - - - - - - -
20/08:00am 23.2 SSE 3 6 1011.0 - 0.0 - - - - - - -
20/07:30am 22.7 S 3 5 1010.7 - 0.0 - - - - - - -
20/07:00am 22.4 S 4 6 1010.3 - 0.0 - - - - - - -
20/06:30am 22.2 S 2 4 1010.1 - 0.0 - - - - - - -
20/06:00am 22.5 S 3 4 1009.6 - 0.0 - - - - - - -
20/05:30am 23.2 SSE 4 5 1009.7 - 0.0 - - - - - - -
20/05:00am 23.7 SSE 5 5 1009.7 - 0.0 - - - - - - -
20/04:30am 24.3 SE 4 5 1009.5 - 0.0 - - - - - - -
20/04:00am 24.8 E 4 6 1009.3 - 0.0 - - - - - - -
20/03:30am 25.3 E 5 7 1009.5 - 0.0 - - - - - - -
20/03:00am 25.8 NE 4 5 1009.4 - 0.0 - - - - - - -
20/02:30am 26.5 ENE 5 7 1009.8 - 0.0 - - - - - - -
20/02:00am 27.2 ENE 7 10 1010.1 - 0.0 - - - - - - -
20/01:30am 28.3 E 9 12 1010.2 - 0.0 - - - - - - -
20/01:00am 28.5 SE 6 7 1009.9 - 0.0 - - - - - - -
20/12:30am 25.3 SSE 5 7 1009.9 - 0.0 - - - - - - -
20/12:00am 25.0 SSE 5 6 1009.9 - 0.0 - - - - - - -
 
Date/Time
CST
Temp

°C
Wind Pressure Rain
since 9am
mm
Weather Cloud Vis
km
Sea
Height
m
Swell
Dir
 
Speed
knots
Gust
knots
hPa Trend Height
m
Period
s
Dir
19/11:30pm 24.8 S 4 5 1010.3 - 0.0 - - - - - - -
19/11:00pm 25.0 S 3 4 1010.4 - 0.0 - - - - - - -
19/10:30pm 25.3 SSE 4 4 1010.5 - 0.0 - - - - - - -
19/10:00pm 25.8 S 5 7 1010.4 - 0.0 - - - - - - -
19/09:30pm 25.3 SSE 4 4 1010.2 - 0.0 - - - - - - -
19/09:00pm 26.4 SE 4 4 1010.0 - 0.0 - - - - - - -
19/08:30pm 27.1 SSE 3 4 1009.8 - 0.0 - - - - - - -
19/08:00pm 27.6 S 4 5 1009.5 - 0.0 - - - - - - -
19/07:30pm 28.5 S 4 5 1009.2 - 0.0 - - - - - - -
19/07:00pm 30.0 SSE 4 4 1008.9 - 0.0 - - - - - - -
19/06:30pm 31.9 SE 5 6 1008.6 - 0.0 - - - - - - -
19/06:00pm 33.0 SE 6 9 1008.1 - 0.0 - - - - - - -
19/05:30pm 33.6 SE 7 11 1008.1 - 0.0 - - - - - - -
19/05:00pm 34.0 ESE 7 10 1008.0 - 0.0 - - - - - - -
19/04:30pm 34.3 SSE 11 14 1007.7 - 0.0 - - - - - - -
19/04:00pm 34.3 ESE 9 14 1007.6 - 0.0 - - - - - - -
19/03:30pm 34.1 SE 9 13 1007.6 - 0.0 - - - - - - -
19/03:00pm 34.3 SE 8 13 1007.7 - 0.0 - - - - - - -
19/02:30pm 34.2 ESE 9 15 1008.2 - 0.0 - - - - - - -
19/02:00pm 33.2 SE 9 16 1008.6 - 0.0 - - - - - - -
19/01:30pm 33.7 SE 10 14 1008.9 - 0.0 - - - - - - -
19/01:00pm 33.2 SSE 9 15 1009.3 - 0.0 - - - - - - -
19/12:30pm 32.8 SSE 11 16 1010.0 - 0.0 - - - - - - -
19/12:00pm 32.3 ESE 7 12 1010.4 - 0.0 - - - - - - -
19/11:30am 32.0 ESE 7 11 1011.2 - 0.0 - - - - - - -
19/11:00am 31.4 SE 9 14 1011.8 - 0.0 - - - - - - -
19/10:30am 30.2 SE 6 10 1012.2 - 0.0 - - - - - - -
19/10:00am 29.8 ESE 6 8 1012.2 - 0.0 - - - - - - -
19/09:30am 28.3 SE 10 13 1012.0 - 0.0 - - - - - - -
19/09:00am 27.5 SE 9 13 1011.9 - 0.0 - - - - - - -
19/08:30am 27.2 SE 9 13 1012.1 - 0.0 - - - - - - -
19/08:00am 26.3 SSE 4 6 1012.0 - 0.0 - - - - - - -
19/07:30am 24.2 S 4 5 1011.8 - 0.0 - - - - - - -
19/07:00am 23.5 S 4 6 1011.5 - 0.0 - - - - - - -
19/06:30am 23.1 SSW 3 5 1011.2 - 0.0 - - - - - - -
19/06:00am 23.3 S 4 5 1010.8 - 0.0 - - - - - - -
19/05:30am 23.4 SSW 4 5 1010.9 - 0.0 - - - - - - -
19/05:00am 23.3 S 3 5 1010.8 - 0.0 - - - - - - -
19/04:30am 23.5 SSE 4 5 1010.9 - 0.0 - - - - - - -
19/04:00am 23.6 ESE 1 4 1011.0 - 0.0 - - - - - - -
19/03:30am 23.6 CALM 0 0 1011.0 - 0.0 - - - - - - -
19/03:00am 24.0 CALM 0 0 1011.0 - 0.0 - - - - - - -
19/02:30am 25.1 E 1 3 1011.0 - 0.0 - - - - - - -
19/02:00am 25.3 E 2 3 1011.2 - 0.0 - - - - - - -
19/01:30am 25.5 E 1 3 1011.3 - 0.0 - - - - - - -
19/01:00am 26.2 CALM 0 0 1011.6 - 0.0 - - - - - - -
19/12:30am 26.6 ENE 3 5 1012.0 - 0.0 - - - - - - -
19/12:00am 27.1 ENE 5 6 1011.9 - 0.0 - - - - - - -
 
Date/Time
CST
Temp

°C
Wind Pressure Rain
since 9am
mm
Weather Cloud Vis
km
Sea
Height
m
Swell
Dir
 
Speed
knots
Gust
knots
hPa Trend Height
m
Period
s
Dir
18/11:30pm 28.0 NNE 7 10 1012.1 - 0.0 - - - - - - -
18/11:00pm 29.5 E 8 12 1011.9 - 0.0 - - - - - - -
18/10:30pm 27.7 SSE 4 5 1011.4 - 0.0 - - - - - - -
18/10:00pm 27.5 SSE 4 4 1011.3 - 0.0 - - - - - - -
18/09:30pm 27.7 S 4 5 1011.3 - 0.0 - - - - - - -
18/09:00pm 27.9 SE 4 5 1011.1 - 0.0 - - - - - - -
18/08:30pm 28.2 SSE 4 6 1011.0 - 0.0 - - - - - - -

Other Formats:

Comma delimited format used in spreadsheet applications
http://www.bom.gov.au/fwo/IDD60701/IDD60701.95111.axf

JavaScript Object Notation format (JSON) in row-major order
http://www.bom.gov.au/fwo/IDD60701/IDD60701.95111.json